Time;durP1;ratioP1;P1;durP2;ratioP2;P2;SDS_P1;SDS_P2;PMS_P1;PMS_P2;Temp;Humidity;BMP_temperature;BMP_pressure;BME280_temperature;BME280_humidity;BME280_pressure;Samples;Min_cycle;Max_cycle;Signal;HPM_P1;HPM_P2
2023/07/16 00:00:04;;;;;;;18.88;5.68;;;;;;;;;;4918676;28;20467;-65
2023/07/16 00:02:30;;;;;;;13.65;4.82;;;;;;;;;;4924219;28;20448;-65
2023/07/16 00:04:57;;;;;;;17.73;5.93;;;;;;;;;;4895327;28;20066;-65
2023/07/16 00:07:23;;;;;;;13.55;4.82;;;;;;;;;;4924356;28;20019;-65
2023/07/16 00:09:49;;;;;;;13.00;4.88;;;;;;;;;;4905380;28;20455;-64
2023/07/16 00:12:15;;;;;;;13.13;5.05;;;;;;;;;;4925583;28;20019;-64
2023/07/16 00:14:41;;;;;;;18.67;5.50;;;;;;;;;;4923896;28;20601;-67
2023/07/16 00:17:07;;;;;;;14.88;4.75;;;;;;;;;;4920709;28;20066;-66
2023/07/16 00:19:34;;;;;;;13.57;4.20;;;;;;;;;;4908525;28;20453;-65
2023/07/16 00:22:00;;;;;;;14.45;3.90;;;;;;;;;;4921527;28;20023;-65
2023/07/16 00:24:26;;;;;;;11.25;4.03;;;;;;;;;;4924185;28;20037;-65
2023/07/16 00:26:53;;;;;;;14.88;3.85;;;;;;;;;;4924090;28;20114;-64
2023/07/16 00:29:19;;;;;;;14.80;4.00;;;;;;;;;;4924970;28;20183;-65
2023/07/16 00:31:45;;;;;;;13.15;3.90;;;;;;;;;;4922743;28;20032;-65
2023/07/16 00:34:12;;;;;;;13.18;4.18;;;;;;;;;;4907482;28;20027;-65
2023/07/16 00:36:39;;;;;;;14.60;4.00;;;;;;;;;;4924285;28;20463;-65
2023/07/16 00:39:05;;;;;;;17.13;4.25;;;;;;;;;;4924277;28;20142;-64
2023/07/16 00:41:31;;;;;;;13.32;4.00;;;;;;;;;;4924058;28;20555;-64
2023/07/16 00:43:57;;;;;;;15.73;4.47;;;;;;;;;;4929320;28;20437;-65
2023/07/16 00:46:24;;;;;;;12.80;4.18;;;;;;;;;;4927049;28;20480;-65
2023/07/16 00:48:51;;;;;;;13.55;4.60;;;;;;;;;;4925464;28;20051;-65
2023/07/16 00:51:18;;;;;;;13.75;4.35;;;;;;;;;;4929822;28;20425;-65
2023/07/16 00:53:45;;;;;;;13.80;4.18;;;;;;;;;;4927810;28;20039;-68
2023/07/16 00:56:11;;;;;;;12.05;4.18;;;;;;;;;;4929210;28;20435;-65
2023/07/16 00:58:38;;;;;;;13.55;3.90;;;;;;;;;;4932161;28;20730;-64
2023/07/16 01:01:04;;;;;;;16.23;4.65;;;;;;;;;;4917286;28;22382;-64
2023/07/16 01:03:30;;;;;;;16.40;4.70;;;;;;;;;;4926949;28;20110;-64
2023/07/16 01:06:11;;;;;;;13.25;4.10;;;;;;;;;;4933288;28;20034;-64
2023/07/16 01:08:37;;;;;;;15.63;4.43;;;;;;;;;;4928287;28;20114;-65
2023/07/16 01:11:04;;;;;;;12.88;4.20;;;;;;;;;;4932230;28;21261;-64
2023/07/16 01:13:30;;;;;;;13.00;4.45;;;;;;;;;;4911039;29;20031;-65
2023/07/16 01:15:56;;;;;;;13.25;3.92;;;;;;;;;;4930043;28;20114;-65
2023/07/16 01:18:22;;;;;;;14.52;4.20;;;;;;;;;;4933481;28;20054;-64
2023/07/16 01:20:49;;;;;;;10.90;3.67;;;;;;;;;;4924225;28;20035;-64
2023/07/16 01:23:24;;;;;;;14.23;3.90;;;;;;;;;;4928893;28;20023;-64
2023/07/16 01:26:05;;;;;;;14.05;4.03;;;;;;;;;;4928190;28;20209;-64
2023/07/16 01:28:42;;;;;;;13.07;4.70;;;;;;;;;;4930682;28;20039;-65
2023/07/16 01:31:09;;;;;;;13.95;3.63;;;;;;;;;;4915722;28;20023;-64
2023/07/16 01:33:36;;;;;;;11.40;3.53;;;;;;;;;;4931511;28;20122;-65
2023/07/16 01:36:03;;;;;;;11.48;3.80;;;;;;;;;;4927334;28;20038;-64
2023/07/16 01:38:29;;;;;;;13.98;3.97;;;;;;;;;;4918485;28;20500;-64
2023/07/16 01:40:55;;;;;;;10.73;3.53;;;;;;;;;;4928008;28;20508;-64
2023/07/16 01:43:21;;;;;;;12.43;4.47;;;;;;;;;;4917694;28;20042;-64
2023/07/16 01:45:47;;;;;;;10.52;3.80;;;;;;;;;;4912343;28;20039;-64
2023/07/16 01:48:25;;;;;;;15.55;4.43;;;;;;;;;;4917811;28;20031;-64
2023/07/16 01:50:51;;;;;;;13.80;4.07;;;;;;;;;;4910378;29;20228;-64
2023/07/16 01:53:17;;;;;;;11.88;4.00;;;;;;;;;;4896087;29;20036;-64
2023/07/16 01:55:43;;;;;;;15.38;4.35;;;;;;;;;;4910717;29;20114;-64
2023/07/16 01:58:10;;;;;;;12.55;3.75;;;;;;;;;;4898005;29;20023;-65
2023/07/16 02:00:36;;;;;;;14.90;4.47;;;;;;;;;;4897291;29;20031;-64
2023/07/16 02:03:03;;;;;;;16.60;4.45;;;;;;;;;;4913115;29;20031;-64
2023/07/16 02:05:29;;;;;;;13.57;4.30;;;;;;;;;;4898101;29;20032;-64
2023/07/16 02:07:55;;;;;;;13.20;3.92;;;;;;;;;;4914579;29;20053;-65
2023/07/16 02:10:21;;;;;;;10.77;3.78;;;;;;;;;;4916001;29;20028;-66
2023/07/16 02:12:47;;;;;;;15.75;4.15;;;;;;;;;;4894713;29;20036;-65
2023/07/16 02:15:14;;;;;;;12.75;3.95;;;;;;;;;;4880968;29;20532;-65
2023/07/16 02:17:40;;;;;;;14.38;4.05;;;;;;;;;;4916748;29;20035;-65
2023/07/16 02:20:06;;;;;;;13.32;4.45;;;;;;;;;;4909287;29;20035;-65
2023/07/16 02:22:33;;;;;;;12.13;4.32;;;;;;;;;;4894544;29;20111;-65
2023/07/16 02:24:59;;;;;;;15.57;3.92;;;;;;;;;;4893903;29;20042;-65
2023/07/16 02:27:25;;;;;;;14.05;3.88;;;;;;;;;;4913473;29;20341;-65
2023/07/16 02:29:51;;;;;;;14.30;4.18;;;;;;;;;;4892023;29;20208;-65
2023/07/16 02:32:17;;;;;;;13.02;3.90;;;;;;;;;;4918530;28;20030;-65
2023/07/16 02:34:43;;;;;;;12.45;3.97;;;;;;;;;;4916941;29;20270;-66
2023/07/16 02:37:10;;;;;;;13.82;3.97;;;;;;;;;;4916726;28;20042;-66
2023/07/16 02:39:36;;;;;;;13.05;4.25;;;;;;;;;;4899105;29;20097;-66
2023/07/16 02:42:02;;;;;;;11.57;3.80;;;;;;;;;;4911173;29;20027;-65
2023/07/16 02:44:28;;;;;;;17.92;4.55;;;;;;;;;;4912941;29;20245;-66
2023/07/16 02:46:54;;;;;;;16.10;3.85;;;;;;;;;;4899094;29;20038;-65
2023/07/16 02:49:20;;;;;;;11.70;3.78;;;;;;;;;;4920869;28;20047;-64
2023/07/16 02:51:46;;;;;;;10.80;4.00;;;;;;;;;;4931605;28;20473;-64
2023/07/16 02:54:13;;;;;;;12.80;4.13;;;;;;;;;;4929915;28;20075;-64
2023/07/16 02:56:39;;;;;;;11.63;3.67;;;;;;;;;;4935136;28;20042;-66
2023/07/16 02:59:05;;;;;;;11.60;3.80;;;;;;;;;;4925921;28;20028;-66
2023/07/16 03:01:31;;;;;;;12.82;4.03;;;;;;;;;;4932772;28;20364;-66
2023/07/16 03:03:57;;;;;;;13.35;4.00;;;;;;;;;;4924507;28;20039;-63
2023/07/16 03:06:24;;;;;;;15.07;3.88;;;;;;;;;;4930749;28;20509;-66
2023/07/16 03:08:50;;;;;;;13.60;3.88;;;;;;;;;;4925734;28;20035;-64
2023/07/16 03:11:16;;;;;;;13.35;3.55;;;;;;;;;;4932147;28;20061;-66
2023/07/16 03:13:42;;;;;;;12.60;3.83;;;;;;;;;;4929261;28;20405;-66
2023/07/16 03:16:08;;;;;;;11.32;3.50;;;;;;;;;;4926113;28;20042;-66
2023/07/16 03:18:35;;;;;;;15.95;4.50;;;;;;;;;;4931754;28;20028;-66
2023/07/16 03:21:01;;;;;;;12.43;3.67;;;;;;;;;;4915240;28;20069;-63
2023/07/16 03:23:27;;;;;;;13.15;3.47;;;;;;;;;;4927422;28;20417;-67
2023/07/16 03:25:53;;;;;;;11.95;3.33;;;;;;;;;;4927656;28;20039;-64
2023/07/16 03:28:19;;;;;;;14.63;3.50;;;;;;;;;;4931696;28;20035;-65
2023/07/16 03:30:49;;;;;;;12.98;3.50;;;;;;;;;;4910767;28;20031;-64
2023/07/16 03:33:15;;;;;;;11.95;3.42;;;;;;;;;;4915766;28;20457;-64
2023/07/16 03:35:45;;;;;;;14.35;3.85;;;;;;;;;;4914593;28;20453;-64
2023/07/16 03:38:12;;;;;;;9.85;3.20;;;;;;;;;;4926818;28;20038;-65
2023/07/16 03:40:38;;;;;;;12.23;3.53;;;;;;;;;;4926787;28;20070;-64
2023/07/16 03:43:04;;;;;;;12.07;3.65;;;;;;;;;;4906845;28;20685;-65
2023/07/16 03:45:31;;;;;;;13.70;3.47;;;;;;;;;;4935575;28;20039;-64
2023/07/16 03:47:57;;;;;;;10.02;3.30;;;;;;;;;;4926823;28;20228;-64
2023/07/16 03:50:23;;;;;;;12.57;3.50;;;;;;;;;;4916312;28;20146;-66
2023/07/16 03:52:49;;;;;;;11.98;3.40;;;;;;;;;;4910874;29;20070;-66
2023/07/16 03:55:15;;;;;;;12.88;3.60;;;;;;;;;;4911072;29;20583;-64
2023/07/16 03:57:41;;;;;;;12.68;3.47;;;;;;;;;;4917647;29;20114;-67
2023/07/16 04:00:09;;;;;;;11.80;3.67;;;;;;;;;;4896643;29;20478;-64
2023/07/16 04:02:35;;;;;;;12.60;3.60;;;;;;;;;;4918226;29;20031;-64
2023/07/16 04:05:02;;;;;;;12.15;3.67;;;;;;;;;;4906413;29;20024;-64
2023/07/16 04:07:29;;;;;;;11.05;3.65;;;;;;;;;;4896612;29;20615;-66
2023/07/16 04:09:55;;;;;;;12.73;3.45;;;;;;;;;;4898209;29;20782;-64
2023/07/16 04:12:21;;;;;;;13.95;3.58;;;;;;;;;;4902136;29;20544;-64
2023/07/16 04:14:47;;;;;;;13.02;3.75;;;;;;;;;;4898855;29;20031;-64
2023/07/16 04:17:14;;;;;;;11.60;3.70;;;;;;;;;;4896910;29;20035;-64
2023/07/16 04:19:40;;;;;;;14.68;3.50;;;;;;;;;;4921089;29;20603;-64
2023/07/16 04:22:06;;;;;;;11.65;3.85;;;;;;;;;;4900277;29;20034;-66
2023/07/16 04:24:32;;;;;;;10.73;3.65;;;;;;;;;;4918345;29;20140;-64
2023/07/16 04:26:59;;;;;;;10.98;3.60;;;;;;;;;;4916555;29;20505;-64
2023/07/16 04:29:25;;;;;;;10.85;3.22;;;;;;;;;;4906590;29;20027;-65
2023/07/16 04:31:51;;;;;;;10.75;3.35;;;;;;;;;;4919317;29;20043;-64
2023/07/16 04:34:17;;;;;;;13.32;3.30;;;;;;;;;;4900439;29;20031;-64
2023/07/16 04:36:45;;;;;;;12.70;3.47;;;;;;;;;;4917012;29;20451;-64
2023/07/16 04:39:11;;;;;;;13.07;3.63;;;;;;;;;;4923069;29;20110;-65
2023/07/16 04:41:38;;;;;;;12.98;3.38;;;;;;;;;;4920897;29;20039;-65
2023/07/16 04:44:05;;;;;;;9.88;3.15;;;;;;;;;;4914977;29;20892;-64
2023/07/16 04:46:32;;;;;;;14.30;3.47;;;;;;;;;;4921069;29;20040;-65
2023/07/16 04:48:58;;;;;;;11.57;3.70;;;;;;;;;;4900427;28;20066;-65
2023/07/16 04:51:24;;;;;;;14.80;3.05;;;;;;;;;;4935206;28;20095;-64
2023/07/16 04:53:50;;;;;;;10.55;3.00;;;;;;;;;;4915904;28;20039;-65
2023/07/16 04:56:16;;;;;;;13.57;2.92;;;;;;;;;;4914741;28;20061;-64
2023/07/16 04:58:43;;;;;;;14.48;3.17;;;;;;;;;;4935286;28;20096;-64
2023/07/16 05:01:10;;;;;;;15.55;3.38;;;;;;;;;;4940236;28;20037;-64
2023/07/16 05:03:36;;;;;;;14.02;3.67;;;;;;;;;;4933365;28;20043;-64
2023/07/16 05:06:03;;;;;;;15.13;4.00;;;;;;;;;;4912018;28;20424;-64
2023/07/16 05:08:29;;;;;;;16.98;3.72;;;;;;;;;;4931529;28;20208;-65
2023/07/16 05:10:55;;;;;;;16.33;3.80;;;;;;;;;;4934479;28;20465;-65
2023/07/16 05:13:21;;;;;;;14.57;3.53;;;;;;;;;;4932348;28;20365;-65
2023/07/16 05:15:48;;;;;;;15.85;3.58;;;;;;;;;;4931776;28;20038;-64
2023/07/16 05:18:14;;;;;;;17.50;4.13;;;;;;;;;;4930949;28;20512;-65
2023/07/16 05:20:40;;;;;;;16.83;3.50;;;;;;;;;;4935234;28;20137;-64
2023/07/16 05:23:06;;;;;;;15.50;3.45;;;;;;;;;;4926513;28;20595;-64
2023/07/16 05:25:32;;;;;;;15.25;3.63;;;;;;;;;;4930224;28;20589;-64
2023/07/16 05:27:58;;;;;;;15.05;3.70;;;;;;;;;;4911812;28;20466;-66
2023/07/16 05:30:24;;;;;;;15.55;3.35;;;;;;;;;;4933964;28;20114;-64
2023/07/16 05:32:50;;;;;;;16.75;3.17;;;;;;;;;;4930070;28;20039;-65
2023/07/16 05:35:17;;;;;;;15.25;3.25;;;;;;;;;;4915509;28;20493;-67
2023/07/16 05:37:43;;;;;;;14.77;3.47;;;;;;;;;;4932053;28;20643;-64
2023/07/16 05:40:09;;;;;;;17.70;4.05;;;;;;;;;;4929818;28;20030;-65
2023/07/16 05:42:36;;;;;;;18.52;3.78;;;;;;;;;;4932102;28;20091;-64
2023/07/16 05:45:02;;;;;;;16.52;4.28;;;;;;;;;;4932695;28;20090;-64
2023/07/16 05:47:28;;;;;;;16.35;4.05;;;;;;;;;;4915912;28;20047;-64
2023/07/16 05:49:54;;;;;;;18.42;3.63;;;;;;;;;;4929511;28;20062;-64
2023/07/16 05:52:20;;;;;;;17.75;3.63;;;;;;;;;;4931188;28;20309;-64
2023/07/16 05:54:46;;;;;;;17.40;3.85;;;;;;;;;;4915128;28;20423;-64
2023/07/16 05:57:13;;;;;;;16.85;3.67;;;;;;;;;;4932281;28;20034;-65
2023/07/16 05:59:39;;;;;;;15.65;3.83;;;;;;;;;;4914310;28;20028;-66
2023/07/16 06:02:05;;;;;;;15.75;3.58;;;;;;;;;;4928399;28;20038;-66
2023/07/16 06:04:31;;;;;;;15.70;3.92;;;;;;;;;;4934818;28;20091;-66
2023/07/16 06:06:58;;;;;;;16.27;3.92;;;;;;;;;;4927246;28;20046;-66
2023/07/16 06:09:24;;;;;;;19.88;4.00;;;;;;;;;;4914482;28;20058;-66
2023/07/16 06:11:50;;;;;;;19.58;4.50;;;;;;;;;;4930425;28;20044;-66
2023/07/16 06:14:17;;;;;;;13.93;3.97;;;;;;;;;;4929228;28;20102;-66
2023/07/16 06:16:43;;;;;;;17.02;3.90;;;;;;;;;;4912790;28;20111;-66
2023/07/16 06:19:09;;;;;;;20.23;4.38;;;;;;;;;;4916040;28;20223;-66
2023/07/16 06:21:36;;;;;;;17.08;3.80;;;;;;;;;;4931807;28;20034;-66
2023/07/16 06:24:02;;;;;;;18.80;4.03;;;;;;;;;;4928795;28;20035;-66
2023/07/16 06:26:28;;;;;;;17.63;4.35;;;;;;;;;;4932001;28;20054;-66
2023/07/16 06:28:54;;;;;;;19.23;4.50;;;;;;;;;;4910328;28;20464;-66
2023/07/16 06:31:20;;;;;;;16.50;3.97;;;;;;;;;;4931527;28;20038;-66
2023/07/16 06:33:46;;;;;;;18.92;4.63;;;;;;;;;;4928708;28;20106;-66
2023/07/16 06:36:13;;;;;;;14.32;3.90;;;;;;;;;;4929300;28;20328;-67
2023/07/16 06:38:39;;;;;;;20.85;4.78;;;;;;;;;;4933996;28;20356;-66
2023/07/16 06:41:05;;;;;;;14.95;3.60;;;;;;;;;;4927957;28;20042;-66
2023/07/16 06:43:32;;;;;;;19.02;4.47;;;;;;;;;;4928145;28;20034;-66
2023/07/16 06:45:58;;;;;;;15.13;4.18;;;;;;;;;;4924939;28;20541;-66
2023/07/16 06:48:24;;;;;;;17.00;4.30;;;;;;;;;;4929242;28;20134;-66
2023/07/16 06:50:51;;;;;;;17.10;4.05;;;;;;;;;;4928976;28;20046;-65
2023/07/16 06:53:17;;;;;;;18.63;4.43;;;;;;;;;;4913808;28;20153;-64
2023/07/16 06:55:43;;;;;;;20.75;4.50;;;;;;;;;;4930507;28;20521;-66
2023/07/16 06:58:14;;;;;;;18.90;4.15;;;;;;;;;;4918520;28;20143;-66
2023/07/16 07:00:41;;;;;;;21.15;5.43;;;;;;;;;;4917067;28;20113;-66
2023/07/16 07:03:07;;;;;;;17.92;5.03;;;;;;;;;;4928770;28;20039;-63
2023/07/16 07:05:35;;;;;;;15.43;4.13;;;;;;;;;;4929650;28;20144;-66
2023/07/16 07:08:02;;;;;;;18.13;4.35;;;;;;;;;;4925072;28;20134;-66
2023/07/16 07:10:28;;;;;;;14.63;4.25;;;;;;;;;;4929953;28;20035;-66
2023/07/16 07:12:54;;;;;;;18.63;4.63;;;;;;;;;;4928803;28;20402;-66
2023/07/16 07:15:20;;;;;;;19.10;5.15;;;;;;;;;;4930115;28;20023;-66
2023/07/16 07:17:46;;;;;;;15.23;4.03;;;;;;;;;;4931851;28;20133;-66
2023/07/16 07:20:14;;;;;;;21.92;5.13;;;;;;;;;;4926320;28;20046;-66
2023/07/16 07:22:40;;;;;;;21.02;4.95;;;;;;;;;;4925251;28;20063;-66
2023/07/16 07:25:06;;;;;;;20.00;4.85;;;;;;;;;;4909024;28;20062;-66
2023/07/16 07:27:32;;;;;;;18.75;4.95;;;;;;;;;;4932680;28;20035;-66
2023/07/16 07:29:58;;;;;;;20.75;5.18;;;;;;;;;;4926555;28;20030;-66
2023/07/16 07:32:24;;;;;;;15.15;4.47;;;;;;;;;;4912609;28;20031;-66
2023/07/16 07:34:51;;;;;;;18.70;4.78;;;;;;;;;;4923853;28;20425;-66
2023/07/16 07:37:17;;;;;;;18.08;4.30;;;;;;;;;;4927772;28;20031;-66
2023/07/16 07:39:47;;;;;;;18.33;4.85;;;;;;;;;;4929443;28;20067;-66
2023/07/16 07:42:13;;;;;;;18.80;5.43;;;;;;;;;;4930508;28;20416;-65
2023/07/16 07:44:39;;;;;;;19.27;4.57;;;;;;;;;;4917416;28;20031;-65
2023/07/16 07:47:07;;;;;;;16.58;4.15;;;;;;;;;;4926015;28;20039;-64
2023/07/16 07:49:34;;;;;;;18.73;5.05;;;;;;;;;;4929478;28;20371;-64
2023/07/16 07:52:00;;;;;;;18.67;4.72;;;;;;;;;;4925409;28;20561;-67
2023/07/16 07:54:26;;;;;;;15.05;4.22;;;;;;;;;;4932828;28;20027;-65
2023/07/16 07:56:52;;;;;;;17.75;4.82;;;;;;;;;;4928144;28;20027;-65
2023/07/16 07:59:19;;;;;;;15.20;4.32;;;;;;;;;;4931938;28;20031;-66
2023/07/16 08:01:45;;;;;;;15.82;4.35;;;;;;;;;;4919856;28;20113;-65
2023/07/16 08:04:11;;;;;;;12.05;3.55;;;;;;;;;;4899886;29;20090;-66
2023/07/16 08:06:37;;;;;;;16.35;4.57;;;;;;;;;;4923019;28;20039;-65
2023/07/16 08:09:03;;;;;;;15.60;4.88;;;;;;;;;;4914613;28;20195;-65
2023/07/16 08:11:29;;;;;;;14.88;5.53;;;;;;;;;;4905207;28;20069;-66
2023/07/16 08:13:55;;;;;;;15.75;4.93;;;;;;;;;;4921528;28;20486;-65
2023/07/16 08:16:22;;;;;;;17.20;5.03;;;;;;;;;;4923152;28;20039;-66
2023/07/16 08:18:48;;;;;;;16.00;4.63;;;;;;;;;;4903114;28;20375;-66
2023/07/16 08:21:19;;;;;;;15.60;4.63;;;;;;;;;;4901060;28;20094;-65
2023/07/16 08:23:46;;;;;;;18.60;4.82;;;;;;;;;;4896975;28;20031;-66
2023/07/16 08:26:12;;;;;;;18.88;5.68;;;;;;;;;;4918396;28;20126;-66
2023/07/16 08:28:38;;;;;;;15.45;4.65;;;;;;;;;;4922138;28;20698;-69
2023/07/16 08:31:05;;;;;;;14.45;4.50;;;;;;;;;;4916912;28;20702;-66
2023/07/16 08:33:31;;;;;;;14.52;4.57;;;;;;;;;;4923863;28;20245;-65
2023/07/16 08:35:57;;;;;;;15.07;4.07;;;;;;;;;;4921983;28;20051;-65
2023/07/16 08:38:23;;;;;;;17.95;4.63;;;;;;;;;;4908437;28;20027;-65
2023/07/16 08:40:49;;;;;;;16.20;4.72;;;;;;;;;;4902282;28;20106;-65
2023/07/16 08:43:16;;;;;;;13.38;4.18;;;;;;;;;;4907443;28;20358;-65
2023/07/16 08:45:44;;;;;;;13.27;4.15;;;;;;;;;;4908118;28;20290;-65
2023/07/16 08:48:11;;;;;;;15.60;4.32;;;;;;;;;;4909298;28;20398;-65
2023/07/16 08:50:38;;;;;;;17.45;4.80;;;;;;;;;;4925624;28;20039;-65
2023/07/16 08:53:07;;;;;;;12.18;4.00;;;;;;;;;;4923095;28;22450;-65
2023/07/16 08:55:34;;;;;;;14.43;4.50;;;;;;;;;;4925364;28;20039;-66
2023/07/16 08:58:01;;;;;;;13.90;4.10;;;;;;;;;;4923020;28;20030;-65
2023/07/16 09:00:28;;;;;;;17.70;4.78;;;;;;;;;;4925554;28;20286;-66
2023/07/16 09:02:54;;;;;;;14.07;4.53;;;;;;;;;;4903965;28;20461;-65
2023/07/16 09:05:21;;;;;;;14.27;4.75;;;;;;;;;;4927328;28;20039;-65
2023/07/16 09:07:47;;;;;;;15.10;4.72;;;;;;;;;;4924583;28;20061;-65
2023/07/16 09:10:13;;;;;;;14.57;4.50;;;;;;;;;;4929724;28;20339;-65
2023/07/16 09:12:43;;;;;;;14.30;4.15;;;;;;;;;;4929184;28;20035;-65
2023/07/16 09:15:10;;;;;;;13.40;4.43;;;;;;;;;;4907654;28;20074;-65
2023/07/16 09:17:38;;;;;;;16.73;4.47;;;;;;;;;;4927445;28;20122;-65
2023/07/16 09:20:06;;;;;;;14.25;4.13;;;;;;;;;;4908754;28;23061;-65
2023/07/16 09:22:34;;;;;;;18.08;5.55;;;;;;;;;;4929127;28;20451;-65
2023/07/16 09:25:03;;;;;;;20.55;6.53;;;;;;;;;;4916892;28;20031;-65
2023/07/16 09:27:29;;;;;;;16.27;5.00;;;;;;;;;;4930014;28;20211;-65
2023/07/16 09:29:56;;;;;;;13.45;4.68;;;;;;;;;;4908394;28;20035;-65
2023/07/16 09:32:22;;;;;;;14.90;4.20;;;;;;;;;;4929164;28;20474;-65
2023/07/16 09:34:51;;;;;;;15.10;4.15;;;;;;;;;;4925923;28;20497;-66
2023/07/16 09:37:19;;;;;;;16.73;4.10;;;;;;;;;;4909383;28;20456;-67
2023/07/16 09:39:46;;;;;;;12.52;3.90;;;;;;;;;;4925353;28;20039;-66
2023/07/16 09:42:12;;;;;;;14.07;3.80;;;;;;;;;;4927695;28;20389;-66
2023/07/16 09:44:41;;;;;;;15.60;4.45;;;;;;;;;;4928936;28;20094;-66
2023/07/16 09:47:07;;;;;;;12.07;3.83;;;;;;;;;;4908361;28;20134;-66
2023/07/16 09:49:33;;;;;;;13.52;3.78;;;;;;;;;;4927908;28;20043;-66
2023/07/16 09:52:01;;;;;;;17.83;3.97;;;;;;;;;;4928020;28;20413;-66
2023/07/16 09:54:29;;;;;;;17.33;4.18;;;;;;;;;;4930577;28;20036;-66
2023/07/16 09:56:58;;;;;;;11.90;3.70;;;;;;;;;;4908316;28;20223;-66
2023/07/16 09:59:25;;;;;;;14.93;3.80;;;;;;;;;;4909619;28;20042;-66
2023/07/16 10:01:52;;;;;;;15.07;3.92;;;;;;;;;;4923472;28;20565;-66
2023/07/16 10:04:19;;;;;;;13.50;3.45;;;;;;;;;;4926523;28;20050;-66
2023/07/16 10:06:55;;;;;;;13.85;3.60;;;;;;;;;;4925860;28;20475;-65
2023/07/16 10:09:39;;;;;;;11.57;3.53;;;;;;;;;;4927910;28;20066;-66
2023/07/16 10:12:09;;;;;;;12.57;3.35;;;;;;;;;;4921626;28;20031;-66
2023/07/16 10:14:40;;;;;;;13.13;3.25;;;;;;;;;;4909587;28;20352;-65
2023/07/16 10:17:06;;;;;;;11.85;3.40;;;;;;;;;;4922935;28;20109;-66
2023/07/16 10:19:35;;;;;;;11.52;3.28;;;;;;;;;;4907276;29;20027;-66
2023/07/16 10:22:02;;;;;;;11.05;3.13;;;;;;;;;;4904876;28;20027;-66
2023/07/16 10:24:28;;;;;;;13.18;3.78;;;;;;;;;;4910358;28;20481;-66
2023/07/16 10:26:54;;;;;;;16.27;4.30;;;;;;;;;;4924637;28;20027;-66
2023/07/16 10:29:20;;;;;;;12.70;3.50;;;;;;;;;;4926437;28;20041;-64
2023/07/16 10:31:47;;;;;;;11.35;3.00;;;;;;;;;;4924783;28;20023;-65
2023/07/16 10:34:13;;;;;;;12.10;3.50;;;;;;;;;;4910632;28;20478;-65
2023/07/16 10:36:40;;;;;;;11.85;3.70;;;;;;;;;;4908018;28;20333;-66
2023/07/16 10:39:06;;;;;;;13.63;3.58;;;;;;;;;;4924250;28;20484;-65
2023/07/16 10:41:32;;;;;;;12.90;3.50;;;;;;;;;;4925842;28;20034;-66
2023/07/16 10:43:59;;;;;;;14.10;3.53;;;;;;;;;;4906431;28;20031;-65
2023/07/16 10:46:25;;;;;;;12.32;3.30;;;;;;;;;;4925739;28;20035;-66
2023/07/16 10:48:51;;;;;;;11.20;3.45;;;;;;;;;;4923628;28;20050;-65
2023/07/16 10:51:17;;;;;;;11.75;3.22;;;;;;;;;;4927509;28;20261;-66
2023/07/16 10:53:44;;;;;;;14.63;3.53;;;;;;;;;;4925371;28;20090;-66
2023/07/16 10:56:10;;;;;;;12.85;3.83;;;;;;;;;;4907301;28;20415;-65
2023/07/16 10:58:37;;;;;;;11.63;3.60;;;;;;;;;;4924092;28;20050;-66
2023/07/16 11:01:03;;;;;;;13.07;3.40;;;;;;;;;;4919249;28;20204;-66
2023/07/16 11:03:30;;;;;;;10.60;3.03;;;;;;;;;;4926208;28;20035;-66
2023/07/16 11:05:56;;;;;;;15.57;4.05;;;;;;;;;;4922608;28;20034;-66
2023/07/16 11:08:23;;;;;;;12.48;3.28;;;;;;;;;;4927188;28;20036;-66
2023/07/16 11:10:58;;;;;;;13.70;3.63;;;;;;;;;;4923434;28;20028;-66
2023/07/16 11:13:28;;;;;;;11.55;3.17;;;;;;;;;;4927337;28;20035;-66
2023/07/16 11:15:55;;;;;;;14.43;3.40;;;;;;;;;;4925230;28;20036;-66
2023/07/16 11:18:24;;;;;;;14.07;3.47;;;;;;;;;;4911609;28;20027;-65
2023/07/16 11:20:54;;;;;;;12.23;3.30;;;;;;;;;;4906157;28;20024;-65
2023/07/16 11:23:20;;;;;;;11.75;3.10;;;;;;;;;;4923773;28;20062;-66
2023/07/16 11:25:47;;;;;;;12.68;3.53;;;;;;;;;;4924686;28;20724;-66
2023/07/16 11:28:13;;;;;;;12.82;3.42;;;;;;;;;;4926284;28;20432;-65
2023/07/16 11:30:39;;;;;;;11.20;3.40;;;;;;;;;;4925504;28;20166;-65
2023/07/16 11:33:10;;;;;;;11.23;3.20;;;;;;;;;;4904810;28;20449;-66
2023/07/16 11:35:37;;;;;;;11.27;3.08;;;;;;;;;;4927149;28;20035;-66
2023/07/16 11:38:05;;;;;;;11.57;3.40;;;;;;;;;;4922609;28;20031;-66
2023/07/16 11:40:31;;;;;;;13.63;3.10;;;;;;;;;;4926147;28;20027;-66
2023/07/16 11:42:57;;;;;;;11.77;3.47;;;;;;;;;;4923779;28;20274;-66
2023/07/16 11:45:26;;;;;;;11.48;3.33;;;;;;;;;;4926080;28;20094;-66
2023/07/16 11:47:52;;;;;;;11.38;3.25;;;;;;;;;;4922023;28;20658;-66
2023/07/16 11:50:19;;;;;;;11.05;3.35;;;;;;;;;;4927133;28;20136;-66
2023/07/16 11:52:53;;;;;;;14.32;3.50;;;;;;;;;;4922923;28;20062;-66
2023/07/16 11:55:19;;;;;;;15.93;3.40;;;;;;;;;;4925393;28;20130;-66
2023/07/16 11:57:45;;;;;;;14.32;3.70;;;;;;;;;;4923735;28;20023;-66
2023/07/16 12:00:12;;;;;;;10.52;3.35;;;;;;;;;;4925076;28;20525;-66
2023/07/16 12:02:38;;;;;;;12.77;3.58;;;;;;;;;;4924428;28;20474;-66
2023/07/16 12:05:04;;;;;;;12.25;3.25;;;;;;;;;;4921272;28;20131;-66
2023/07/16 12:07:32;;;;;;;12.00;3.45;;;;;;;;;;4924594;28;20798;-66
2023/07/16 12:09:58;;;;;;;10.88;3.15;;;;;;;;;;4920363;28;20027;-66
2023/07/16 12:12:24;;;;;;;13.18;3.63;;;;;;;;;;4926500;28;20101;-66
2023/07/16 12:14:50;;;;;;;10.80;3.45;;;;;;;;;;4920360;28;20114;-66
2023/07/16 12:17:16;;;;;;;10.73;3.42;;;;;;;;;;4906667;28;20039;-66
2023/07/16 12:19:43;;;;;;;12.20;3.20;;;;;;;;;;4924663;28;20032;-66
2023/07/16 12:22:10;;;;;;;13.07;3.42;;;;;;;;;;4920865;28;20059;-66
2023/07/16 12:24:36;;;;;;;11.13;3.08;;;;;;;;;;4926054;28;20031;-67
2023/07/16 12:27:02;;;;;;;12.15;3.55;;;;;;;;;;4922858;28;20031;-66
2023/07/16 12:29:28;;;;;;;12.15;3.08;;;;;;;;;;4925375;28;20288;-66
2023/07/16 12:31:54;;;;;;;13.85;3.58;;;;;;;;;;4921744;28;20146;-66
2023/07/16 12:34:21;;;;;;;14.85;3.75;;;;;;;;;;4907666;28;20452;-66
2023/07/16 12:36:47;;;;;;;11.38;3.30;;;;;;;;;;4922852;28;20222;-66
2023/07/16 12:39:13;;;;;;;14.45;3.78;;;;;;;;;;4912486;28;20023;-66
2023/07/16 12:41:39;;;;;;;12.43;4.10;;;;;;;;;;4930686;28;20344;-66
2023/07/16 12:44:05;;;;;;;11.02;3.75;;;;;;;;;;4927965;28;20151;-66
2023/07/16 12:46:31;;;;;;;12.23;3.78;;;;;;;;;;4910362;28;20597;-66
2023/07/16 12:48:57;;;;;;;11.70;3.60;;;;;;;;;;4923004;28;20057;-66
2023/07/16 12:51:23;;;;;;;12.73;3.60;;;;;;;;;;4929066;28;20031;-66
2023/07/16 12:53:50;;;;;;;12.90;3.60;;;;;;;;;;4926301;28;20035;-66
2023/07/16 12:56:16;;;;;;;12.48;3.28;;;;;;;;;;4931854;28;20035;-66
2023/07/16 12:58:42;;;;;;;13.43;3.55;;;;;;;;;;4928007;28;20031;-66
2023/07/16 13:01:08;;;;;;;14.63;4.10;;;;;;;;;;4923796;28;20039;-66
2023/07/16 13:03:34;;;;;;;15.48;3.67;;;;;;;;;;4927979;28;20023;-66
2023/07/16 13:06:03;;;;;;;12.10;3.60;;;;;;;;;;4928018;28;20063;-66
2023/07/16 13:08:29;;;;;;;15.82;3.90;;;;;;;;;;4928787;28;20031;-66
2023/07/16 13:10:55;;;;;;;12.85;3.40;;;;;;;;;;4924439;28;20066;-67
2023/07/16 13:13:22;;;;;;;15.68;4.25;;;;;;;;;;4927903;28;20034;-67
2023/07/16 13:15:48;;;;;;;13.52;3.38;;;;;;;;;;4924793;28;20031;-66
2023/07/16 13:18:14;;;;;;;11.63;3.63;;;;;;;;;;4912517;28;20254;-67
2023/07/16 13:20:40;;;;;;;12.90;3.50;;;;;;;;;;4928963;28;20031;-66
2023/07/16 13:23:08;;;;;;;16.55;3.70;;;;;;;;;;4925936;28;20062;-67
2023/07/16 13:25:34;;;;;;;12.60;3.47;;;;;;;;;;4929876;28;20114;-66
2023/07/16 13:28:00;;;;;;;11.05;3.47;;;;;;;;;;4925589;28;20105;-66
2023/07/16 13:30:26;;;;;;;11.10;3.33;;;;;;;;;;4930926;28;20031;-66
2023/07/16 13:32:54;;;;;;;12.38;3.72;;;;;;;;;;4926459;28;20023;-66
2023/07/16 13:35:21;;;;;;;15.30;3.45;;;;;;;;;;4930885;28;20039;-66
2023/07/16 13:37:47;;;;;;;13.15;3.78;;;;;;;;;;4927296;28;20027;-67
2023/07/16 13:40:13;;;;;;;11.98;3.58;;;;;;;;;;4934814;28;20042;-67
2023/07/16 13:42:39;;;;;;;14.18;4.05;;;;;;;;;;4932209;28;20977;-66
2023/07/16 13:45:06;;;;;;;12.25;3.53;;;;;;;;;;4928252;28;20479;-67
2023/07/16 13:47:32;;;;;;;11.60;3.47;;;;;;;;;;4911878;28;20031;-67
2023/07/16 13:49:58;;;;;;;11.43;3.42;;;;;;;;;;4930891;28;20117;-67
2023/07/16 13:52:25;;;;;;;13.00;3.65;;;;;;;;;;4934343;28;20110;-67
2023/07/16 13:54:51;;;;;;;12.15;3.75;;;;;;;;;;4913617;28;20045;-67
2023/07/16 13:57:17;;;;;;;14.82;4.53;;;;;;;;;;4934144;28;20026;-68
2023/07/16 13:59:43;;;;;;;13.68;3.78;;;;;;;;;;4928839;28;20039;-67
2023/07/16 14:02:09;;;;;;;14.18;3.90;;;;;;;;;;4926172;28;20031;-67
2023/07/16 14:04:35;;;;;;;12.48;3.25;;;;;;;;;;4917078;28;20117;-67
2023/07/16 14:07:02;;;;;;;15.43;4.07;;;;;;;;;;4927539;28;20585;-67
2023/07/16 14:09:28;;;;;;;12.38;3.78;;;;;;;;;;4918381;28;20062;-67
2023/07/16 14:11:54;;;;;;;13.55;3.90;;;;;;;;;;4924077;28;20039;-67
2023/07/16 14:14:22;;;;;;;12.40;3.42;;;;;;;;;;4935069;28;20031;-67
2023/07/16 14:16:48;;;;;;;13.57;3.95;;;;;;;;;;4925302;28;20670;-67
2023/07/16 14:19:14;;;;;;;13.02;3.67;;;;;;;;;;4915594;28;20031;-67
2023/07/16 14:21:41;;;;;;;12.05;3.55;;;;;;;;;;4930036;28;20161;-66
2023/07/16 14:24:07;;;;;;;13.25;3.75;;;;;;;;;;4908643;28;20035;-66
2023/07/16 14:26:33;;;;;;;13.40;3.60;;;;;;;;;;4924230;28;20309;-66